Latest Weather Observations for Flinders Island Airport

IDT60801

Issued at 9:31 am EST Friday 6 May 2016 (issued every 30 minutes, with the page automatically refreshed every 10 minutes)

About weather observations | Map of weather stations | Latest weather observations for TAS | Other Formats
Station Details ID: 099005 Name: FLINDERS ISLAND AIRPORT Lat: -40.09 Lon: 148.00 Height: 9.0 m
Data from the previous 72 hours. | See also: Recent months at Flinders Island Airport
Date/Time
EST
Temp
°C
App
Temp
°C
Dew
Point
Rel
Hum
%
Delta-T
°C
Wind Press
QNH
hPa
Press
MSL
hPa
Rain
since 9 am
mm
Dir
 
Spd
km/h
Gust
km/h
Spd
kts
Gust
kts
06/09:30am 20.1 14.4 11.8 59 4.6 NW 33 43 18 23 1013.6 1013.6 0.0
06/09:00am 19.9 14.0 11.1 57 4.8 NW 33 46 18 25 1013.5 1013.5 0.0
06/08:30am 19.7 13.9 10.9 57 4.8 NW 32 43 17 23 1013.5 1013.5 0.0
06/08:00am 19.2 14.1 10.7 58 4.6 NNW 28 39 15 21 1012.9 1012.9 0.0
06/07:31am 19.1 14.0 10.6 58 4.6 NNW 28 46 15 25 1012.6 1012.6 0.0
06/07:30am 19.2 13.7 10.5 57 4.7 NNW 30 46 16 25 1012.6 1012.6 0.0
06/07:25am 18.9 13.8 10.5 58 4.5 NNW 28 46 15 25 1012.5 1012.5 0.0
06/07:00am 18.9 13.8 10.5 58 4.5 NNW 28 41 15 22 1012.3 1012.3 0.0
06/06:30am 18.7 13.1 10.3 58 4.5 NNW 30 41 16 22 1012.0 1012.0 0.0
06/06:00am 18.7 13.4 10.0 57 4.6 NNW 28 43 15 23 1011.8 1011.8 0.0
06/05:32am 18.6 13.3 9.9 57 4.6 NNW 28 48 15 26 1011.7 1011.7 0.0
06/05:30am 18.8 13.6 10.1 57 4.6 NNW 28 44 15 24 1011.7 1011.7 0.0
06/05:00am 18.5 12.8 9.8 57 4.6 NNW 30 48 16 26 1011.5 1011.5 0.0
06/04:30am 18.9 12.8 9.9 56 4.8 NNW 32 50 17 27 1011.4 1011.4 0.0
06/04:00am 18.5 13.2 9.8 57 4.6 NNW 28 46 15 25 1011.2 1011.2 0.0
06/03:33am 18.8 13.4 9.6 55 4.9 NNW 28 50 15 27 1011.2 1011.2 0.0
06/03:30am 18.8 13.4 9.6 55 4.9 NNW 28 39 15 21 1011.2 1011.2 0.0
06/03:01am 19.0 13.1 9.2 53 5.1 NNW 30 52 16 28 1011.3 1011.3 0.0
06/03:00am 19.0 13.1 9.2 53 5.2 NNW 30 43 16 23 1011.3 1011.3 0.0
06/02:30am 18.7 12.9 9.5 55 4.9 NNW 30 41 16 22 1011.4 1011.4 0.0
06/02:00am 18.5 13.0 9.3 55 4.8 NNW 28 41 15 22 1011.4 1011.4 0.0
06/01:30am 18.6 13.2 9.4 55 4.8 NNW 28 41 15 22 1011.5 1011.5 0.0
06/01:00am 18.0 12.7 9.9 59 4.3 NNW 28 41 15 22 1011.5 1011.5 0.0
06/12:30am 17.3 12.1 10.2 63 3.8 NNW 28 41 15 22 1011.5 1011.5 0.0
06/12:00am 17.0 12.3 10.6 66 3.4 N 26 37 14 20 1011.7 1011.7 0.0
 
Date/Time
EST
Temp
°C
App
Temp
°C
Dew
Point
Rel
Hum
%
Delta-T
°C
Wind Press
QNH
hPa
Press
MSL
hPa
Rain
since 9 am
mm
Dir
 
Spd
km/h
Gust
km/h
Spd
kts
Gust
kts
05/11:30pm 16.7 11.6 10.5 67 3.3 N 28 39 15 21 1011.9 1011.9 0.0
05/11:00pm 16.6 11.9 10.5 67 3.2 N 26 35 14 19 1012.1 1012.1 0.0
05/10:30pm 16.5 11.3 10.4 67 3.2 N 28 37 15 20 1012.4 1012.4 0.0
05/10:00pm 16.1 11.1 10.8 71 2.8 N 28 37 15 20 1012.6 1012.6 0.0
05/09:30pm 16.1 11.5 11.1 72 2.7 N 26 35 14 19 1012.8 1012.8 0.0
05/09:00pm 15.8 11.1 10.8 72 2.7 N 26 35 14 19 1012.8 1012.8 0.0
05/08:30pm 16.1 11.4 10.6 70 2.9 N 26 35 14 19 1012.8 1012.8 0.0
05/08:00pm 16.4 11.6 10.3 67 3.2 N 26 41 14 22 1012.8 1012.8 0.0
05/07:30pm 15.9 10.8 10.7 71 2.8 N 28 43 15 23 1012.8 1012.8 0.0
05/07:00pm 15.7 9.9 10.9 73 2.6 NNE 32 39 17 21 1012.7 1012.7 0.0
05/06:30pm 16.0 11.1 9.9 67 3.2 N 26 35 14 19 1012.5 1012.5 0.0
05/06:00pm 16.6 11.1 9.1 61 3.9 N 28 37 15 20 1012.5 1012.5 0.0
05/05:30pm 16.5 11.8 9.2 62 3.8 NNE 24 33 13 18 1012.3 1012.3 0.0
05/05:00pm 17.2 13.9 9.4 60 4.1 N 17 22 9 12 1012.4 1012.4 0.0
05/04:30pm 17.4 13.5 9.3 59 4.2 N 20 35 11 19 1012.3 1012.3 0.0
05/04:00pm 17.7 13.3 9.1 57 4.5 NNW 22 35 12 19 1012.5 1012.5 0.0
05/03:30pm 18.0 13.3 9.4 57 4.5 NNW 24 35 13 19 1012.6 1012.6 0.0
05/03:00pm 18.4 13.4 9.5 56 4.7 NNW 26 39 14 21 1012.7 1012.7 0.0
05/02:30pm 18.7 12.5 9.5 55 4.9 NW 32 50 17 27 1012.8 1012.8 0.0
05/02:00pm 18.9 12.8 9.7 55 4.9 NW 32 43 17 23 1012.9 1012.9 0.0
05/01:30pm 18.6 11.8 9.4 55 4.8 NW 35 54 19 29 1013.0 1013.0 0.0
05/01:28pm 18.6 11.9 9.7 56 4.7 NW 35 54 19 29 1013.0 1013.0 0.0
05/01:00pm 18.4 10.9 9.5 56 4.7 NW 39 54 21 29 1013.2 1013.2 0.0
05/12:30pm 18.8 11.3 9.6 55 4.9 NW 39 59 21 32 1013.5 1013.5 0.0
05/12:10pm 18.7 11.6 9.5 55 4.9 NW 37 56 20 30 1013.8 1013.8 0.0
05/12:00pm 18.6 11.1 9.4 55 4.8 NW 39 54 21 29 1013.9 1013.9 0.0
05/11:30am 18.6 11.9 9.7 56 4.7 NW 35 54 19 29 1014.4 1014.4 0.0
05/11:28am 18.6 12.0 9.9 57 4.6 NW 35 54 19 29 1014.4 1014.4 0.0
05/11:00am 18.1 11.4 9.7 58 4.4 NW 35 50 19 27 1014.9 1014.9 0.0
05/10:51am 18.0 11.4 9.9 59 4.3 NW 35 54 19 29 1014.9 1014.9 0.0
05/10:30am 17.9 11.5 9.5 58 4.4 NW 33 46 18 25 1015.0 1015.0 0.0
05/10:00am 17.9 11.8 9.8 59 4.3 NW 32 44 17 24 1015.1 1015.1 0.0
05/09:30am 17.4 11.7 9.8 61 4.0 NW 30 39 16 21 1015.2 1015.2 0.0
05/09:00am 17.0 11.3 9.7 62 3.8 NW 30 41 16 22 1015.4 1015.4 0.8
05/08:30am 16.4 11.8 9.6 64 3.5 NNW 24 35 13 19 1015.5 1015.5 0.8
05/08:00am 15.8 11.9 9.5 66 3.3 NNW 20 33 11 18 1015.4 1015.4 0.8
05/07:30am 15.6 10.9 9.1 65 3.3 NNW 24 33 13 18 1015.1 1015.1 0.8
05/07:00am 15.7 11.9 9.1 65 3.4 NNW 19 30 10 16 1014.8 1014.8 0.8
05/06:30am 15.8 11.5 9.5 66 3.3 NNW 22 33 12 18 1014.6 1014.6 0.8
05/06:00am 15.9 10.4 9.1 64 3.5 NW 28 41 15 22 1014.5 1014.5 0.8
05/05:30am 16.0 9.6 9.4 65 3.4 NW 33 43 18 23 1014.5 1014.5 0.8
05/05:00am 16.1 9.3 9.1 63 3.6 NW 35 50 19 27 1014.4 1014.4 0.8
05/04:30am 16.0 9.2 9.2 64 3.5 NW 35 50 19 27 1014.3 1014.3 0.8
05/04:00am 15.8 9.0 9.2 65 3.4 NW 35 48 19 26 1014.2 1014.2 0.8
05/03:30am 15.8 9.4 9.5 66 3.3 NW 33 52 18 28 1014.2 1014.2 0.8
05/03:15am 15.7 9.3 9.4 66 3.3 NW 33 52 18 28 1014.2 1014.2 0.8
05/03:00am 15.7 9.3 9.4 66 3.3 NW 33 46 18 25 1014.2 1014.2 0.8
05/02:30am 15.8 8.9 8.8 63 3.6 NW 35 50 19 27 1014.1 1014.1 0.8
05/02:24am 15.7 9.4 8.9 64 3.5 NW 32 50 17 27 1014.1 1014.1 0.8
05/02:00am 15.7 9.3 8.7 63 3.6 NW 32 44 17 24 1014.1 1014.1 0.8
05/01:35am 15.4 9.3 8.2 62 3.6 NW 30 48 16 26 1014.1 1014.1 0.8
05/01:30am 15.6 9.9 8.4 62 3.6 NW 28 39 15 21 1014.1 1014.1 0.8
05/01:00am 15.5 9.0 8.0 61 3.8 NW 32 39 17 21 1014.2 1014.2 0.8
05/12:30am 15.7 8.6 8.0 60 3.9 NW 35 48 19 26 1014.4 1014.4 0.8
05/12:00am 15.6 8.8 7.6 59 4.0 NW 33 43 18 23 1014.4 1014.4 0.8
 
Date/Time
EST
Temp
°C
App
Temp
°C
Dew
Point
Rel
Hum
%
Delta-T
°C
Wind Press
QNH
hPa
Press
MSL
hPa
Rain
since 9 am
mm
Dir
 
Spd
km/h
Gust
km/h
Spd
kts
Gust
kts
04/11:30pm 15.4 8.1 7.4 59 4.0 NW 35 50 19 27 1014.5 1014.5 0.8
04/11:08pm 15.5 8.3 7.5 59 4.0 NW 35 54 19 29 1014.5 1014.5 0.8
04/11:00pm 15.4 8.5 7.4 59 4.0 NW 33 43 18 23 1014.5 1014.5 0.8
04/10:43pm 15.2 8.7 8.0 62 3.6 NW 32 50 17 27 1014.6 1014.6 0.8
04/10:30pm 15.1 8.3 7.9 62 3.6 NW 33 44 18 24 1014.6 1014.6 0.8
04/10:00pm 15.2 9.3 7.3 59 3.9 NW 28 41 15 22 1014.7 1014.7 0.8
04/09:30pm 15.0 8.3 7.5 61 3.7 NW 32 44 17 24 1014.8 1014.8 0.8
04/09:00pm 15.0 8.1 7.3 60 3.8 NW 33 48 18 26 1014.7 1014.7 0.8
04/08:30pm 14.7 7.5 7.5 62 3.6 WNW 35 46 19 25 1014.5 1014.5 0.8
04/08:00pm 14.7 7.9 7.5 62 3.6 NW 33 46 18 25 1014.3 1014.3 0.8
04/07:30pm 14.3 7.8 8.0 66 3.1 WNW 32 50 17 27 1014.2 1014.2 0.8
04/07:28pm 14.3 7.8 8.0 66 3.1 WNW 32 50 17 27 1014.2 1014.2 0.8
04/07:00pm 14.2 7.6 7.7 65 3.2 WNW 32 41 17 22 1014.1 1014.1 0.8
04/06:30pm 14.1 7.5 7.9 66 3.1 WNW 32 46 17 25 1013.8 1013.8 0.8
04/06:00pm 13.8 7.6 7.8 67 3.0 WNW 30 39 16 21 1013.5 1013.5 0.8
04/05:30pm 13.3 8.7 9.5 78 1.9 WNW 24 37 13 20 1013.2 1013.2 0.8
04/05:00pm 12.7 6.5 9.5 81 1.6 WNW 32 50 17 27 1013.1 1013.1 0.8
04/04:34pm 13.1 6.8 9.0 76 2.1 WNW 32 57 17 31 1012.9 1012.9 0.8
04/04:30pm 13.1 7.2 9.2 77 2.0 WNW 30 39 16 21 1012.8 1012.8 0.8
04/04:04pm 12.2 8.5 9.4 83 1.4 NW 19 33 10 18 1012.7 1012.7 0.8
04/04:00pm 12.1 8.2 9.5 84 1.3 NW 20 33 11 18 1012.7 1012.7 0.8
04/03:59pm 12.1 8.2 9.5 84 1.3 WNW 20 33 11 18 1012.7 1012.7 0.8
04/03:43pm 12.1 5.0 9.5 84 1.3 WNW 37 57 20 31 1012.9 1012.9 0.2
04/03:37pm 13.4 7.9 9.3 76 2.1 WNW 28 57 15 31 1012.6 1012.6 0.2
04/03:30pm 13.3 8.1 9.0 75 2.2 WNW 26 33 14 18 1012.4 1012.4 0.0
04/03:02pm 14.0 7.7 8.8 71 2.6 WNW 32 50 17 27 1012.1 1012.1 0.0
04/03:00pm 14.2 8.2 8.8 70 2.7 NW 30 39 16 21 1012.1 1012.1 0.0
04/02:30pm 15.4 9.3 8.4 63 3.5 WNW 30 44 16 24 1011.9 1011.9 0.0
04/02:00pm 15.8 8.9 6.5 54 4.5 W 32 43 17 23 1011.8 1011.8 0.0
04/01:30pm 15.2 7.9 5.4 52 4.7 W 33 44 18 24 1011.7 1011.7 0.0
04/01:00pm 15.3 8.1 6.1 54 4.4 W 33 44 18 24 1011.8 1011.8 0.0
04/12:30pm 14.8 6.9 6.4 57 4.1 W 37 48 20 26 1011.8 1011.8 0.0
04/12:00pm 14.1 6.0 7.2 63 3.4 W 39 59 21 32 1012.1 1012.1 0.0
04/11:52am 14.6 7.5 6.2 57 4.0 W 33 59 18 32 1012.0 1012.0 0.0
04/11:30am 14.9 6.9 5.7 54 4.4 W 37 48 20 26 1011.9 1011.9 0.0
04/11:00am 14.6 6.6 5.9 56 4.2 W 37 48 20 26 1011.9 1011.9 0.0
04/10:30am 15.0 7.0 5.8 54 4.4 W 37 46 20 25 1011.7 1011.7 0.0
04/10:00am 14.4 7.6 7.0 61 3.6 W 32 41 17 22 1011.2 1011.2 0.0
04/09:30am 13.9 5.7 6.7 62 3.5 W 39 52 21 28 1010.9 1010.9 0.0
04/09:00am 13.8 5.9 6.2 60 3.6 W 37 50 20 27 1010.7 1010.7 10.8
04/08:30am 13.2 4.5 6.1 62 3.4 W 41 54 22 29 1010.3 1010.3 10.8
04/08:00am 12.6 3.0 6.4 66 3.0 W 46 59 25 32 1010.0 1010.0 10.8
04/07:40am 12.7 3.6 7.0 68 2.7 W 44 63 24 34 1009.7 1009.7 10.8
04/07:30am 13.0 3.2 5.4 60 3.5 W 46 57 25 31 1009.4 1009.4 10.8
04/07:00am 12.6 3.5 5.8 63 3.2 W 43 56 23 30 1008.4 1008.4 10.6
04/06:30am 11.2 2.0 6.5 73 2.2 W 44 67 24 36 1008.5 1008.5 10.6
04/06:25am 12.4 2.8 6.2 66 2.9 W 46 67 25 36 1008.2 1008.2 10.6
04/06:00am 12.7 4.3 5.8 63 3.2 W 39 52 21 28 1007.8 1007.8 10.6
04/05:39am 11.9 4.1 6.6 70 2.5 W 37 57 20 31 1007.5 1007.5 10.6
04/05:30am 11.6 4.2 6.7 72 2.3 W 35 50 19 27 1007.5 1007.5 10.6
04/05:00am 12.0 1.7 6.5 69 2.6 W 50 72 27 39 1007.0 1007.0 10.4
04/04:30am 10.2 1.2 7.1 81 1.5 W 44 69 24 37 1006.6 1006.6 10.4
04/04:28am 10.5 1.6 7.6 82 1.4 W 44 69 24 37 1006.6 1006.6 10.4
04/04:13am 8.7 -2.4 6.2 84 1.1 WSW 54 89 29 48 1006.4 1006.4 10.2
04/04:10am 7.7 -3.5 4.1 78 1.6 WSW 52 89 28 48 1006.4 1006.4 10.2
04/04:09am 8.8 -1.8 5.0 77 1.7 WSW 50 89 27 48 1006.2 1006.2 9.6
04/04:08am 11.3 1.7 6.4 72 2.3 WSW 46 78 25 42 1006.0 1006.0 8.8
04/04:00am 13.0 3.7 5.2 59 3.6 W 43 57 23 31 1005.5 1005.5 8.8
04/03:30am 12.9 2.2 4.8 58 3.7 W 50 74 27 40 1005.2 1005.2 8.8
04/03:16am 12.5 2.6 5.0 60 3.5 W 46 65 25 35 1005.1 1005.1 8.8
04/03:00am 12.4 2.7 5.6 63 3.2 W 46 59 25 32 1005.0 1005.0 8.8
04/02:30am 12.8 2.7 5.7 62 3.3 W 48 65 26 35 1004.3 1004.3 8.8
04/02:08am 12.2 2.7 6.5 68 2.7 W 46 65 25 35 1004.2 1004.2 8.8
04/02:00am 12.4 2.7 9.1 80 1.7 W 50 65 27 35 1004.1 1004.1 8.8
04/01:39am 12.8 4.9 7.9 72 2.4 W 39 56 21 30 1003.8 1003.8 8.8
04/01:30am 12.1 5.1 8.4 78 1.8 WNW 35 54 19 29 1003.7 1003.7 8.8
04/01:00am 12.7 3.6 7.0 68 2.8 WNW 44 63 24 34 1003.6 1003.6 8.8
04/12:35am 12.2 4.6 6.0 66 2.9 W 35 54 19 29 1003.6 1003.6 8.8
04/12:30am 12.1 2.9 6.2 67 2.8 W 44 57 24 31 1003.7 1003.7 8.8
04/12:13am 12.6 4.2 7.5 71 2.5 W 41 63 22 34 1003.2 1003.2 8.8
04/12:00am 12.5 3.8 7.6 72 2.4 W 43 54 23 29 1003.2 1003.2 8.8
 
Date/Time
EST
Temp
°C
App
Temp
°C
Dew
Point
Rel
Hum
%
Delta-T
°C
Wind Press
QNH
hPa
Press
MSL
hPa
Rain
since 9 am
mm
Dir
 
Spd
km/h
Gust
km/h
Spd
kts
Gust
kts
03/11:45pm 12.3 3.2 7.0 70 2.5 W 44 57 24 31 1003.0 1003.0 8.8
03/11:30pm 12.1 1.1 8.4 78 1.8 WSW 56 70 30 38 1002.9 1002.9 8.8
03/11:19pm 12.4 2.5 8.3 76 2.0 W 50 70 27 38 1002.5 1002.5 8.8
03/11:00pm 13.4 5.1 7.8 69 2.8 W 41 57 22 31 1002.2 1002.2 8.4
03/10:30pm 13.1 4.3 7.3 68 2.8 W 43 54 23 29 1002.2 1002.2 8.4
03/10:00pm 13.4 3.9 8.3 71 2.6 W 48 59 26 32 1002.0 1002.0 8.4
03/09:34pm 13.6 3.5 5.7 59 3.7 W 48 67 26 36 1001.9 1001.9 8.4
03/09:30pm 13.7 3.2 5.8 59 3.7 W 50 67 27 36 1001.8 1001.8 8.4
03/09:00pm 13.8 3.6 6.9 63 3.4 W 50 69 27 37 1001.3 1001.3 8.4
03/08:44pm 13.6 3.6 6.2 61 3.5 W 48 67 26 36 1001.1 1001.1 8.4
03/08:30pm 13.2 2.2 6.8 65 3.1 W 54 67 29 36 1000.9 1000.9 8.4
03/08:06pm 13.2 2.5 7.9 70 2.6 W 54 78 29 42 1000.4 1000.4 8.4
03/08:00pm 13.2 1.9 7.2 67 2.9 W 56 67 30 36 1000.4 1000.4 8.4
03/07:30pm 13.9 2.1 7.4 65 3.2 W 59 78 32 42 999.6 999.6 8.4
03/07:15pm 13.9 2.5 7.4 65 3.2 W 57 76 31 41 999.0 999.0 8.4
03/07:00pm 13.6 3.4 8.4 71 2.6 W 52 67 28 36 998.6 998.6 8.4
03/06:34pm 12.7 4.6 10.2 85 1.3 W 43 61 23 33 998.1 998.1 8.4
03/06:30pm 12.5 3.8 10.0 85 1.3 W 46 65 25 35 998.4 998.4 8.4
03/06:23pm 12.1 1.9 10.0 87 1.1 W 54 72 29 39 998.2 998.2 8.4
03/06:16pm 12.4 1.8 10.5 88 1.0 W 57 72 31 39 998.2 998.2 8.4
03/06:00pm 12.8 4.0 10.9 88 1.0 W 48 69 26 37 997.8 997.8 8.0
03/05:59pm 12.8 3.6 10.9 88 1.0 W 50 69 27 37 997.7 997.7 7.8
03/05:57pm 12.8 2.9 11.0 89 0.9 W 54 72 29 39 997.7 997.7 7.8
03/05:32pm 13.2 4.1 11.3 88 1.0 W 50 65 27 35 996.7 996.7 7.4
03/05:30pm 13.3 4.2 11.4 88 1.0 W 50 65 27 35 996.7 996.7 7.2
03/05:20pm 13.2 5.5 11.6 90 0.9 W 43 63 23 34 996.4 996.4 7.0
03/05:17pm 13.1 5.8 11.7 91 0.7 W 41 56 22 30 996.3 996.3 7.0
03/05:14pm 13.0 5.1 11.6 91 0.7 W 44 57 24 31 996.2 996.2 7.0
03/05:00pm 12.9 2.8 11.6 92 0.7 W 56 76 30 41 995.8 995.8 7.0
03/04:57pm 13.4 3.9 12.3 93 0.6 W 54 74 29 40 995.6 995.6 7.0
03/04:50pm 13.3 3.3 12.2 93 0.6 W 56 67 30 36 995.3 995.3 7.0
03/04:43pm 12.9 1.5 11.8 93 0.6 WSW 63 82 34 44 995.0 995.0 7.0
03/04:30pm 13.6 3.2 12.7 94 0.5 W 59 76 32 41 993.9 993.9 6.2
03/04:25pm 13.8 4.1 12.9 94 0.5 WNW 56 76 30 41 993.8 993.8 6.0
03/04:00pm 15.6 7.6 12.4 81 1.8 NW 46 74 25 40 993.0 993.0 1.8
03/03:53pm 16.4 7.8 11.8 74 2.5 NW 48 70 26 38 993.2 993.2 1.4
03/03:51pm 16.3 7.4 11.9 75 2.4 NW 50 69 27 37 993.2 993.2 1.2
03/03:35pm 16.1 6.9 12.3 78 2.1 WNW 52 74 28 40 993.0 993.0 1.0
03/03:30pm 16.9 8.8 12.0 73 2.7 WNW 46 65 25 35 993.2 993.2 1.0
03/03:14pm 16.7 10.8 12.3 75 2.4 NW 35 56 19 30 993.4 993.4 0.8
03/03:00pm 17.7 10.7 11.3 66 3.5 NW 39 54 21 29 993.4 993.4 0.6
03/02:30pm 16.2 8.8 12.6 79 2.0 NW 43 67 23 36 994.0 994.0 0.6
03/02:14pm 15.7 7.4 12.6 82 1.7 NW 48 70 26 38 994.2 994.2 0.4
03/02:10pm 16.0 8.5 12.6 80 1.9 NW 44 70 24 38 994.3 994.3 0.4
03/02:00pm 16.4 9.0 12.4 77 2.2 NW 43 56 23 30 994.2 994.2 0.4
03/01:30pm 16.7 6.8 11.2 70 3.0 NW 54 74 29 40 994.8 994.8 0.2
03/01:24pm 17.1 9.0 10.9 67 3.3 NW 44 74 24 40 994.7 994.7 0.2
03/01:10pm 16.9 10.9 10.7 67 3.3 NNW 33 56 18 30 994.5 994.5 0.0
03/01:00pm 16.8 10.9 11.1 69 3.1 NNW 33 48 18 26 994.4 994.4 0.0
03/12:40pm 15.9 10.2 11.7 76 2.3 NNW 33 50 18 27 995.1 995.1 0.0
03/12:38pm 15.9 9.8 11.7 76 2.3 NNW 35 52 19 28 995.1 995.1 0.0
03/12:30pm 16.0 7.8 11.6 75 2.4 NNW 46 78 25 42 995.6 995.6 0.0
03/12:11pm 16.7 7.9 11.0 69 3.1 NW 48 78 26 42 995.9 995.9 0.0
03/12:00pm 18.4 11.7 9.7 57 4.6 NNW 35 54 19 29 995.6 995.6 0.0
03/11:30am 18.7 11.8 8.9 53 5.1 NNW 35 56 19 30 995.6 995.6 0.0
03/11:00am 19.6 10.6 8.9 50 5.7 NNW 46 76 25 41 996.0 996.0 0.0
03/10:30am 18.9 10.8 8.6 51 5.3 NNW 41 63 22 34 996.4 996.4 0.0
03/10:00am 19.4 10.8 9.0 51 5.5 NNW 44 70 24 38 996.8 996.8 0.0

Other Formats:

Comma delimited format used in spreadsheet applications
http://www.bom.gov.au/fwo/IDT60801/IDT60801.94980.axf

JavaScript Object Notation format (JSON) in row-major order
http://www.bom.gov.au/fwo/IDT60801/IDT60801.94980.json